Time;durP1;ratioP1;P1;durP2;ratioP2;P2;SDS_P1;SDS_P2;PMS_P1;PMS_P2;Temp;Humidity;BMP_temperature;BMP_pressure;BME280_temperature;BME280_humidity;BME280_pressure;Samples;Min_cycle;Max_cycle;Signal;HPM_P1;HPM_P2
2021/08/28 00:01:03;;;;;;;3.57;1.47;;;16.40;99.90;;;;;;5010636;28;20215;-91
2021/08/28 00:03:29;;;;;;;5.63;1.60;;;16.40;99.90;;;;;;5010788;28;20179;-91
2021/08/28 00:05:55;;;;;;;3.93;2.10;;;16.40;99.90;;;;;;5021484;28;20280;-91
2021/08/28 00:08:21;;;;;;;6.13;2.40;;;16.40;99.90;;;;;;5008709;28;20818;-92
2021/08/28 00:10:47;;;;;;;1.97;1.20;;;16.40;99.90;;;;;;5010570;28;20215;-91
2021/08/28 00:13:14;;;;;;;5.23;2.57;;;16.40;99.90;;;;;;5010788;28;21005;-92
2021/08/28 00:15:40;;;;;;;4.67;1.70;;;16.40;99.90;;;;;;5019323;28;20250;-91
2021/08/28 00:18:07;;;;;;;4.50;1.83;;;16.50;99.90;;;;;;5012198;28;20546;-92
2021/08/28 00:20:37;;;;;;;4.57;2.43;;;16.50;99.90;;;;;;5009784;28;20210;-91
2021/08/28 00:23:04;;;;;;;3.33;1.77;;;16.50;99.90;;;;;;5010339;28;20215;-91
2021/08/28 00:25:31;;;;;;;4.60;1.93;;;16.50;99.90;;;;;;5018347;28;20237;-91
2021/08/28 00:27:56;;;;;;;2.97;2.00;;;16.60;99.90;;;;;;5011482;28;20253;-91
2021/08/28 00:30:22;;;;;;;7.63;2.20;;;16.70;99.90;;;;;;5013246;28;20212;-91
2021/08/28 00:32:48;;;;;;;5.67;2.60;;;16.80;99.90;;;;;;5016053;28;20215;-93
2021/08/28 00:35:14;;;;;;;1.93;1.43;;;16.80;99.90;;;;;;5014828;28;20218;-91
2021/08/28 00:37:40;;;;;;;3.20;2.20;;;16.80;99.90;;;;;;5014670;28;20207;-91
2021/08/28 00:40:08;;;;;;;2.53;1.60;;;16.80;99.90;;;;;;5013049;28;20207;-92
2021/08/28 00:42:48;;;;;;;7.33;2.17;;;16.80;99.90;;;;;;5021054;28;20230;-92
2021/08/28 00:45:13;;;;;;;2.67;1.80;;;16.80;99.90;;;;;;5024689;28;20693;-92
2021/08/28 00:47:39;;;;;;;2.10;1.70;;;16.80;99.90;;;;;;5012372;28;20223;-91
2021/08/28 00:50:06;;;;;;;6.50;2.93;;;16.80;99.90;;;;;;5012097;28;20211;-91
2021/08/28 00:52:32;;;;;;;8.97;2.27;;;16.70;99.90;;;;;;5020558;28;20215;-91
2021/08/28 00:54:59;;;;;;;6.10;1.97;;;16.70;99.90;;;;;;5012732;28;20215;-90
2021/08/28 00:57:24;;;;;;;7.27;1.80;;;16.70;99.90;;;;;;5013314;28;20195;-91
2021/08/28 00:59:50;;;;;;;3.07;2.17;;;16.70;99.90;;;;;;5020383;28;20226;-91
2021/08/28 01:02:19;;;;;;;9.43;2.27;;;16.70;99.90;;;;;;5012492;28;20280;-91
2021/08/28 01:04:58;;;;;;;3.00;2.07;;;16.60;99.90;;;;;;5023746;28;20202;-91
2021/08/28 01:07:36;;;;;;;2.03;1.60;;;16.60;99.90;;;;;;5022368;28;20199;-91
2021/08/28 01:10:03;;;;;;;2.00;1.60;;;16.60;99.90;;;;;;5022335;28;20218;-91
2021/08/28 01:12:35;;;;;;;2.20;1.60;;;16.60;99.90;;;;;;5022289;28;20766;-91
2021/08/28 01:15:08;;;;;;;4.67;1.70;;;16.70;99.90;;;;;;5022272;28;20211;-91
2021/08/28 01:17:38;;;;;;;5.77;1.93;;;16.70;99.90;;;;;;5019631;28;20223;-92
2021/08/28 01:20:20;;;;;;;4.87;1.30;;;16.70;99.90;;;;;;5022873;28;20774;-91
2021/08/28 01:22:47;;;;;;;4.80;2.20;;;16.70;99.90;;;;;;5029506;28;20218;-91
2021/08/28 01:25:14;;;;;;;1.47;1.33;;;16.70;99.90;;;;;;5022664;28;20214;-93
2021/08/28 01:27:59;;;;;;;2.13;1.43;;;16.70;99.90;;;;;;5012865;28;20635;-91
2021/08/28 01:30:25;;;;;;;4.47;1.67;;;16.70;99.90;;;;;;5021523;28;20178;-91
2021/08/28 01:32:51;;;;;;;2.73;1.90;;;16.70;99.90;;;;;;5012565;28;20214;-91
2021/08/28 01:35:21;;;;;;;4.03;1.43;;;16.70;99.90;;;;;;5013169;28;20583;-91
2021/08/28 01:37:48;;;;;;;9.20;1.90;;;16.70;99.90;;;;;;5018874;28;20580;-91
2021/08/28 01:40:16;;;;;;;4.73;2.00;;;16.80;99.90;;;;;;5012269;28;20807;-91
2021/08/28 01:42:43;;;;;;;3.93;2.07;;;16.80;99.90;;;;;;5012465;28;21025;-91
2021/08/28 01:45:13;;;;;;;2.37;1.57;;;16.80;99.90;;;;;;5018488;28;20233;-92
2021/08/28 01:47:41;;;;;;;6.73;2.30;;;16.90;99.90;;;;;;5011372;28;20301;-91
2021/08/28 01:50:08;;;;;;;4.33;1.67;;;16.90;99.90;;;;;;5019299;28;20294;-92
2021/08/28 01:52:34;;;;;;;7.20;1.70;;;16.90;99.90;;;;;;5019619;28;20272;-92
2021/08/28 01:55:00;;;;;;;3.83;2.00;;;16.90;99.90;;;;;;5010604;28;20574;-91
2021/08/28 01:57:27;;;;;;;3.93;1.90;;;16.90;99.90;;;;;;5020148;28;20176;-91
2021/08/28 01:59:53;;;;;;;5.13;1.70;;;16.90;99.90;;;;;;5009565;28;20215;-91
2021/08/28 02:02:18;;;;;;;2.90;1.90;;;16.90;99.90;;;;;;5009289;28;20222;-91
2021/08/28 02:04:44;;;;;;;3.37;1.70;;;16.90;99.90;;;;;;5009935;28;20546;-91
2021/08/28 02:07:29;;;;;;;6.40;1.67;;;16.90;99.90;;;;;;5009700;28;20216;-92
2021/08/28 02:10:15;;;;;;;4.17;1.50;;;16.90;99.90;;;;;;5017399;28;20226;-91
2021/08/28 02:12:49;;;;;;;4.30;2.07;;;16.80;99.90;;;;;;5019326;28;20207;-91
2021/08/28 02:15:38;;;;;;;4.10;1.53;;;16.80;99.90;;;;;;5020082;28;20726;-92
2021/08/28 02:18:30;;;;;;;4.73;2.60;;;16.80;99.90;;;;;;5036577;28;20215;-92
2021/08/28 02:20:59;;;;;;;5.97;1.73;;;16.80;99.90;;;;;;5018007;28;20631;-91
2021/08/28 02:23:49;;;;;;;5.27;2.40;;;16.80;99.90;;;;;;5018946;28;20309;-90
2021/08/28 02:26:19;;;;;;;7.13;2.17;;;16.80;99.90;;;;;;5017193;28;20216;-92
2021/08/28 02:28:54;;;;;;;3.47;1.83;;;16.90;99.90;;;;;;5034966;28;20291;-90
2021/08/28 02:31:23;;;;;;;2.93;1.70;;;16.90;99.90;;;;;;5016587;28;20633;-90
2021/08/28 02:33:51;;;;;;;6.30;2.00;;;16.90;99.90;;;;;;5025396;28;20225;-90
2021/08/28 02:36:18;;;;;;;5.73;1.53;;;16.90;99.90;;;;;;5002369;28;20191;-91
2021/08/28 02:38:48;;;;;;;5.83;3.50;;;16.90;99.90;;;;;;5022407;28;20229;-91
2021/08/28 02:41:14;;;;;;;11.37;2.93;;;16.90;99.90;;;;;;5029186;28;20215;-91
2021/08/28 02:43:42;;;;;;;7.30;1.60;;;16.90;99.90;;;;;;5005319;28;20218;-91
2021/08/28 02:46:09;;;;;;;4.07;2.13;;;16.90;99.90;;;;;;5012505;28;20219;-92
2021/08/28 02:48:38;;;;;;;6.53;2.57;;;16.90;99.90;;;;;;5021458;28;21157;-91
2021/08/28 02:51:07;;;;;;;2.53;2.00;;;16.90;99.90;;;;;;5018635;28;20186;-91
2021/08/28 02:53:37;;;;;;;2.77;1.63;;;16.90;99.90;;;;;;5019722;28;20215;-91
2021/08/28 02:56:03;;;;;;;5.87;1.83;;;16.80;99.90;;;;;;5011032;28;20226;-92
2021/08/28 02:58:30;;;;;;;6.30;1.77;;;16.80;99.90;;;;;;5003207;28;20214;-91
2021/08/28 03:00:58;;;;;;;5.43;1.77;;;16.80;99.90;;;;;;5020743;28;20711;-92
2021/08/28 03:03:25;;;;;;;5.27;2.27;;;16.80;99.90;;;;;;5019712;28;20229;-92
2021/08/28 03:05:52;;;;;;;6.00;2.00;;;16.70;99.90;;;;;;5009897;28;20226;-92
2021/08/28 03:08:19;;;;;;;2.93;2.00;;;16.70;99.90;;;;;;5018505;28;20211;-92
2021/08/28 03:10:46;;;;;;;5.60;2.00;;;16.70;99.90;;;;;;5009456;28;20309;-93
2021/08/28 03:13:12;;;;;;;5.00;2.83;;;16.80;99.90;;;;;;5016233;28;20234;-92
2021/08/28 03:15:38;;;;;;;7.83;2.20;;;16.80;99.90;;;;;;5011281;28;20265;-92
2021/08/28 03:18:09;;;;;;;3.40;2.70;;;16.70;99.90;;;;;;5011971;28;20195;-93
2021/08/28 03:20:35;;;;;;;3.40;2.03;;;16.70;99.90;;;;;;5019891;28;20305;-91
2021/08/28 03:23:03;;;;;;;3.97;2.00;;;16.60;99.90;;;;;;5020755;28;20222;-92
2021/08/28 03:25:30;;;;;;;12.63;2.17;;;16.60;99.90;;;;;;5011203;28;20222;-91
2021/08/28 03:27:56;;;;;;;5.80;2.30;;;16.70;99.90;;;;;;5027543;28;20310;-93
2021/08/28 03:30:22;;;;;;;9.13;2.60;;;16.70;99.90;;;;;;5011764;28;20223;-92
2021/08/28 03:32:50;;;;;;;12.40;3.20;;;16.60;99.90;;;;;;5012439;28;20234;-93
2021/08/28 03:35:16;;;;;;;7.80;2.83;;;16.60;99.90;;;;;;5020997;28;20577;-93
2021/08/28 03:37:43;;;;;;;9.00;2.23;;;16.60;99.90;;;;;;5003471;28;20645;-92
2021/08/28 03:40:11;;;;;;;10.57;2.53;;;16.50;99.90;;;;;;5019957;28;20222;-91
2021/08/28 03:42:38;;;;;;;6.10;2.10;;;16.50;99.90;;;;;;5020714;28;20609;-92
2021/08/28 03:45:06;;;;;;;4.63;1.80;;;16.40;99.90;;;;;;5011059;28;20195;-92
2021/08/28 03:47:34;;;;;;;3.93;2.33;;;16.40;99.90;;;;;;5011195;28;20309;-93
2021/08/28 03:50:00;;;;;;;4.90;2.00;;;16.40;99.90;;;;;;5021709;28;20233;-94
2021/08/28 03:52:26;;;;;;;3.70;2.93;;;16.40;99.90;;;;;;5010620;28;20731;-92
2021/08/28 03:54:52;;;;;;;3.40;2.50;;;16.40;99.90;;;;;;5011494;28;20261;-92
2021/08/28 03:57:17;;;;;;;3.97;1.93;;;16.50;99.90;;;;;;5012732;28;20278;-93
2021/08/28 03:59:43;;;;;;;3.33;2.03;;;16.50;99.90;;;;;;5001935;28;20215;-92
2021/08/28 04:02:09;;;;;;;4.00;2.30;;;16.50;99.90;;;;;;5011426;28;20753;-93
2021/08/28 04:04:36;;;;;;;2.30;2.00;;;16.50;99.90;;;;;;5011823;28;20215;-93
2021/08/28 04:07:02;;;;;;;6.70;1.90;;;16.60;99.90;;;;;;5013756;28;20223;-92
2021/08/28 04:09:28;;;;;;;3.00;2.20;;;16.60;99.90;;;;;;5014166;28;20806;-91
2021/08/28 04:11:53;;;;;;;5.57;2.67;;;16.60;99.90;;;;;;5013734;28;20222;-91
2021/08/28 04:14:19;;;;;;;2.20;1.93;;;16.50;99.90;;;;;;5014464;28;20246;-92
2021/08/28 04:16:45;;;;;;;6.23;2.67;;;16.50;99.90;;;;;;5012852;28;20313;-91
2021/08/28 04:19:10;;;;;;;4.60;1.80;;;16.60;99.90;;;;;;5013210;28;20326;-91
2021/08/28 04:21:36;;;;;;;4.23;1.53;;;16.60;99.90;;;;;;5013167;28;20187;-91
2021/08/28 04:24:02;;;;;;;4.17;2.43;;;16.60;99.90;;;;;;5013226;28;20183;-92
2021/08/28 04:26:28;;;;;;;2.20;1.70;;;16.50;99.90;;;;;;5012140;28;20586;-92
2021/08/28 04:28:55;;;;;;;4.43;1.70;;;16.50;99.90;;;;;;5014407;28;20215;-91
2021/08/28 04:31:21;;;;;;;8.80;2.50;;;16.50;99.90;;;;;;5005773;28;20234;-92
2021/08/28 04:33:47;;;;;;;4.37;1.97;;;16.60;99.90;;;;;;5013412;28;20194;-92
2021/08/28 04:36:12;;;;;;;2.27;1.73;;;16.60;99.90;;;;;;5012559;28;20187;-92
2021/08/28 04:38:38;;;;;;;2.70;1.60;;;16.60;99.90;;;;;;5013660;28;20256;-92
2021/08/28 04:41:04;;;;;;;4.77;1.93;;;16.60;99.90;;;;;;5013014;28;20218;-92
2021/08/28 04:43:30;;;;;;;5.37;2.73;;;16.60;99.90;;;;;;5011200;28;20266;-92
2021/08/28 04:45:55;;;;;;;5.50;1.83;;;16.60;99.90;;;;;;5012053;28;20234;-91
2021/08/28 04:48:21;;;;;;;2.80;2.03;;;16.70;99.90;;;;;;5013277;28;20191;-90
2021/08/28 04:50:47;;;;;;;5.13;2.07;;;16.60;99.90;;;;;;5011820;28;20580;-91
2021/08/28 04:53:13;;;;;;;4.83;2.37;;;16.70;99.90;;;;;;5011360;28;20568;-91
2021/08/28 04:55:38;;;;;;;3.27;2.00;;;16.70;99.90;;;;;;5012371;28;20214;-91
2021/08/28 04:58:04;;;;;;;5.63;2.50;;;16.70;99.90;;;;;;5011086;28;20221;-91
2021/08/28 05:00:31;;;;;;;8.63;2.27;;;16.60;99.90;;;;;;5011811;28;20226;-92
2021/08/28 05:02:57;;;;;;;6.47;2.60;;;16.60;99.90;;;;;;5012593;28;20221;-91
2021/08/28 05:05:23;;;;;;;2.67;1.87;;;16.70;99.90;;;;;;5010246;28;20218;-92
2021/08/28 05:07:48;;;;;;;4.37;2.50;;;16.70;99.90;;;;;;5010963;28;20226;-92
2021/08/28 05:10:14;;;;;;;3.60;1.70;;;16.80;99.90;;;;;;5011492;28;20222;-92
2021/08/28 05:12:40;;;;;;;2.00;1.13;;;16.80;99.90;;;;;;5012902;28;20293;-92
2021/08/28 05:15:06;;;;;;;3.60;1.63;;;16.80;99.90;;;;;;5021954;28;20226;-91
2021/08/28 05:17:32;;;;;;;9.13;2.00;;;16.80;99.90;;;;;;5013265;28;20203;-92
2021/08/28 05:19:58;;;;;;;2.57;2.37;;;16.90;99.90;;;;;;5016970;28;20833;-92
2021/08/28 05:22:23;;;;;;;4.23;2.10;;;16.90;99.90;;;;;;5009746;28;20207;-92
2021/08/28 05:24:49;;;;;;;6.87;2.23;;;16.90;99.90;;;;;;5013298;28;20200;-91
2021/08/28 05:27:15;;;;;;;4.63;1.80;;;16.90;99.90;;;;;;5014512;28;20267;-92
2021/08/28 05:29:41;;;;;;;9.87;2.73;;;16.90;99.90;;;;;;5012328;28;20297;-91
2021/08/28 05:32:08;;;;;;;4.17;2.20;;;16.90;99.90;;;;;;5010520;28;20218;-90
2021/08/28 05:34:34;;;;;;;10.37;2.47;;;16.90;99.90;;;;;;5010663;28;20622;-91
2021/08/28 05:37:00;;;;;;;10.43;2.47;;;16.90;99.90;;;;;;4994222;28;20349;-90
2021/08/28 05:39:26;;;;;;;5.13;2.27;;;16.90;99.90;;;;;;5006611;28;20233;-91
2021/08/28 05:41:52;;;;;;;3.90;1.97;;;17.00;99.90;;;;;;5019725;28;20223;-92
2021/08/28 05:44:18;;;;;;;5.17;1.40;;;17.10;99.90;;;;;;5010810;28;20215;-91
2021/08/28 05:46:45;;;;;;;3.57;2.17;;;17.10;99.90;;;;;;5012215;28;20272;-93
2021/08/28 05:49:10;;;;;;;4.60;1.87;;;17.10;99.90;;;;;;5011553;28;20298;-91
2021/08/28 05:51:36;;;;;;;3.20;2.07;;;17.10;99.90;;;;;;5011273;28;20298;-91
2021/08/28 05:54:02;;;;;;;3.87;2.10;;;17.10;99.90;;;;;;4996717;28;20223;-92
2021/08/28 05:56:28;;;;;;;2.63;1.90;;;17.10;99.90;;;;;;5014106;28;20229;-93
2021/08/28 05:58:53;;;;;;;3.27;1.90;;;17.10;99.90;;;;;;5011987;28;20203;-92
2021/08/28 06:01:19;;;;;;;4.97;1.93;;;17.10;99.90;;;;;;5010051;28;20217;-89
2021/08/28 06:03:45;;;;;;;3.77;1.67;;;17.10;99.90;;;;;;5007825;28;20774;-89
2021/08/28 06:06:11;;;;;;;3.97;2.23;;;17.20;99.90;;;;;;5017382;28;20490;-90
2021/08/28 06:08:36;;;;;;;4.23;1.97;;;17.20;99.90;;;;;;5008819;28;20690;-91
2021/08/28 06:11:02;;;;;;;9.03;2.20;;;17.20;99.90;;;;;;5015819;28;20207;-90
2021/08/28 06:13:28;;;;;;;4.50;1.90;;;17.20;99.90;;;;;;5007702;28;20849;-86
2021/08/28 06:15:54;;;;;;;8.70;2.67;;;17.20;99.90;;;;;;5006529;28;20770;-87
2021/08/28 06:18:20;;;;;;;4.60;1.60;;;17.30;99.90;;;;;;5019790;28;20175;-85
2021/08/28 06:20:45;;;;;;;10.00;2.23;;;17.30;99.90;;;;;;5001192;28;20929;-88
2021/08/28 06:23:11;;;;;;;3.10;1.50;;;17.30;99.90;;;;;;5002362;28;20769;-87
2021/08/28 06:25:37;;;;;;;3.30;1.20;;;17.30;99.90;;;;;;5008829;28;20211;-85
2021/08/28 06:28:03;;;;;;;3.70;1.70;;;17.30;99.90;;;;;;5007663;28;21322;-86
2021/08/28 06:30:29;;;;;;;5.37;2.47;;;17.30;99.90;;;;;;5008784;28;21833;-87
2021/08/28 06:32:54;;;;;;;4.07;1.73;;;17.40;99.90;;;;;;5008010;28;20218;-85
2021/08/28 06:35:20;;;;;;;3.17;1.97;;;17.40;99.90;;;;;;5008928;28;20222;-89
2021/08/28 06:37:46;;;;;;;4.40;2.00;;;17.40;99.90;;;;;;5008196;28;20207;-87
2021/08/28 06:40:12;;;;;;;3.67;1.77;;;17.40;99.90;;;;;;5008915;28;20213;-86
2021/08/28 06:42:38;;;;;;;4.07;1.80;;;17.40;99.90;;;;;;4991200;28;20328;-89
2021/08/28 06:45:04;;;;;;;2.57;1.77;;;17.30;99.90;;;;;;5000701;28;20206;-86
2021/08/28 06:47:30;;;;;;;2.67;1.63;;;17.40;99.90;;;;;;5006474;28;20214;-87
2021/08/28 06:49:56;;;;;;;5.67;2.87;;;17.40;99.90;;;;;;5006942;28;20207;-87
2021/08/28 06:52:22;;;;;;;4.57;2.00;;;17.40;99.90;;;;;;5001577;28;20765;-86
2021/08/28 06:54:47;;;;;;;6.00;2.50;;;17.60;99.90;;;;;;5018008;28;20191;-86
2021/08/28 06:57:16;;;;;;;5.30;2.20;;;18.60;99.90;;;;;;5006709;28;20230;-87
2021/08/28 06:59:42;;;;;;;2.53;2.27;;;19.90;99.90;;;;;;4999694;28;20584;-89
2021/08/28 07:02:08;;;;;;;5.83;2.00;;;20.00;99.90;;;;;;5007423;28;20215;-87
2021/08/28 07:04:35;;;;;;;3.33;1.50;;;19.50;99.90;;;;;;5007903;28;20261;-90
2021/08/28 07:07:00;;;;;;;5.87;1.40;;;18.90;99.90;;;;;;5006746;28;20305;-89
2021/08/28 07:09:26;;;;;;;4.33;2.40;;;18.80;99.90;;;;;;5008298;28;20314;-89
2021/08/28 07:11:52;;;;;;;2.77;1.73;;;19.20;99.90;;;;;;4969219;28;20226;-89
2021/08/28 07:14:18;;;;;;;2.40;1.70;;;19.90;99.90;;;;;;5002307;28;20194;-91
2021/08/28 07:16:43;;;;;;;5.23;2.27;;;20.80;99.90;;;;;;5007048;28;20730;-90
2021/08/28 07:19:09;;;;;;;4.53;1.97;;;20.20;99.90;;;;;;5007601;28;20218;-88
2021/08/28 07:21:35;;;;;;;4.20;1.80;;;19.90;99.90;;;;;;5009184;28;20195;-89
2021/08/28 07:24:01;;;;;;;5.47;1.50;;;19.50;99.90;;;;;;5009740;28;20214;-88
2021/08/28 07:26:27;;;;;;;5.23;1.90;;;19.10;99.90;;;;;;5009596;28;20550;-88
2021/08/28 07:28:52;;;;;;;2.80;1.60;;;18.90;99.90;;;;;;5009940;28;20210;-89
2021/08/28 07:31:18;;;;;;;3.77;2.23;;;19.40;99.90;;;;;;4998936;28;20684;-89
2021/08/28 07:33:44;;;;;;;4.47;1.43;;;19.30;99.90;;;;;;5009192;28;20260;-92
2021/08/28 07:36:10;;;;;;;2.33;2.00;;;19.10;99.90;;;;;;5009486;28;20214;-89
2021/08/28 07:38:36;;;;;;;5.30;1.87;;;19.00;99.90;;;;;;5017308;28;20261;-91
2021/08/28 07:41:02;;;;;;;4.67;1.97;;;18.90;99.90;;;;;;5018670;28;20207;-89
2021/08/28 07:43:28;;;;;;;4.53;2.27;;;19.10;99.90;;;;;;5017835;28;20686;-89
2021/08/28 07:45:54;;;;;;;4.97;1.80;;;20.00;99.90;;;;;;5010079;28;20191;-92
2021/08/28 07:48:20;;;;;;;6.13;1.80;;;20.80;99.90;;;;;;5009513;28;20252;-90
2021/08/28 07:50:46;;;;;;;4.43;1.93;;;19.90;99.90;;;;;;4991713;28;20206;-91
2021/08/28 07:53:12;;;;;;;5.03;1.50;;;19.50;99.90;;;;;;5008630;28;20223;-91
2021/08/28 07:55:37;;;;;;;1.73;1.50;;;19.00;99.90;;;;;;5002333;28;20210;-89
2021/08/28 07:58:03;;;;;;;7.60;2.33;;;18.70;99.90;;;;;;5007659;28;20202;-89
2021/08/28 08:00:30;;;;;;;5.37;2.17;;;18.60;99.90;;;;;;5007829;28;20342;-91
2021/08/28 08:02:56;;;;;;;2.57;1.70;;;18.50;99.90;;;;;;5008877;28;20227;-90
2021/08/28 08:05:22;;;;;;;2.80;1.27;;;18.80;99.90;;;;;;5008994;28;20215;-91
2021/08/28 08:07:47;;;;;;;4.27;1.70;;;20.00;99.90;;;;;;5008242;28;20245;-90
2021/08/28 08:10:13;;;;;;;2.37;1.77;;;21.90;99.90;;;;;;5007369;28;20309;-91
2021/08/28 08:12:39;;;;;;;4.60;1.87;;;22.90;99.90;;;;;;5015773;28;20660;-91
2021/08/28 08:15:05;;;;;;;1.90;1.43;;;22.60;99.90;;;;;;5006572;28;20669;-90
2021/08/28 08:17:31;;;;;;;5.23;1.70;;;22.90;99.90;;;;;;5009382;28;20228;-89
2021/08/28 08:19:57;;;;;;;2.73;1.77;;;22.20;99.90;;;;;;5007960;28;20711;-89
2021/08/28 08:22:23;;;;;;;2.20;1.60;;;22.70;99.90;;;;;;5023625;28;20310;-92
2021/08/28 08:24:49;;;;;;;2.75;1.35;;;23.50;99.90;;;;;;5008799;28;20282;-89
2021/08/28 08:27:16;;;;;;;6.15;1.50;;;22.10;99.90;;;;;;5007629;28;20226;-88
2021/08/28 08:29:42;;;;;;;4.30;1.70;;;21.80;99.90;;;;;;5013413;28;20839;-91
2021/08/28 08:32:08;;;;;;;2.93;1.43;;;21.00;99.90;;;;;;4999060;28;20223;-88
2021/08/28 08:34:34;;;;;;;2.92;1.55;;;19.90;99.90;;;;;;5008112;28;20574;-89
2021/08/28 08:37:00;;;;;;;4.57;2.00;;;19.70;99.90;;;;;;5007559;28;20266;-90
2021/08/28 08:39:26;;;;;;;3.30;1.60;;;20.10;99.90;;;;;;5007084;28;20720;-90
2021/08/28 08:41:52;;;;;;;4.77;1.50;;;20.90;99.90;;;;;;5009032;28;20230;-89
2021/08/28 08:44:20;;;;;;;13.70;2.10;;;20.20;99.90;;;;;;5008856;28;20219;-89
2021/08/28 08:46:46;;;;;;;1.97;1.50;;;19.60;99.90;;;;;;5035768;28;20223;-89
2021/08/28 08:49:13;;;;;;;3.50;2.23;;;19.80;99.90;;;;;;5016401;28;20696;-90
2021/08/28 08:51:40;;;;;;;1.83;1.60;;;20.40;99.90;;;;;;5019834;28;20218;-89
2021/08/28 08:54:06;;;;;;;3.83;1.60;;;21.00;99.90;;;;;;5020011;28;20207;-90
2021/08/28 08:56:33;;;;;;;3.90;1.67;;;21.30;99.90;;;;;;5012387;28;20222;-90
2021/08/28 08:58:59;;;;;;;1.87;1.33;;;22.30;99.90;;;;;;5013077;28;20393;-90
2021/08/28 09:01:25;;;;;;;2.97;1.50;;;21.70;99.90;;;;;;5013471;28;20306;-90
2021/08/28 09:03:51;;;;;;;1.40;1.27;;;22.70;99.90;;;;;;5012595;28;20189;-89
2021/08/28 09:06:17;;;;;;;3.03;1.25;;;23.40;99.90;;;;;;5021814;28;20958;-89
2021/08/28 09:08:43;;;;;;;1.52;1.42;;;23.10;99.90;;;;;;5011265;28;20206;-92
2021/08/28 09:11:19;;;;;;;2.10;1.55;;;23.10;99.90;;;;;;5010298;28;20226;-90
2021/08/28 09:13:45;;;;;;;2.20;1.50;;;22.10;99.90;;;;;;5019610;28;20248;-89
2021/08/28 09:16:11;;;;;;;2.25;1.40;;;22.00;99.90;;;;;;5017850;28;20327;-90
2021/08/28 09:18:51;;;;;;;5.38;1.30;;;22.70;99.90;;;;;;5011572;28;20186;-89
2021/08/28 09:21:20;;;;;;;2.75;1.23;;;23.60;99.90;;;;;;4994853;28;20676;-90
2021/08/28 09:23:46;;;;;;;3.15;1.30;;;22.80;99.90;;;;;;5016946;28;20694;-90
2021/08/28 09:26:33;;;;;;;2.78;1.20;;;21.80;99.90;;;;;;5010521;28;20215;-92
2021/08/28 09:29:00;;;;;;;7.68;1.75;;;22.30;99.90;;;;;;5019639;28;20797;-89
2021/08/28 09:31:55;;;;;;;1.20;1.10;;;21.10;99.90;;;;;;5011323;28;20908;-90
2021/08/28 09:34:25;;;;;;;1.37;0.97;;;20.80;99.90;;;;;;5003958;28;20608;-90
2021/08/28 09:36:58;;;;;;;2.90;1.70;;;19.30;99.90;;;;;;5017916;28;20187;-88
2021/08/28 09:39:41;;;;;;;2.23;1.33;;;19.20;99.90;;;;;;5021270;28;20218;-89
2021/08/28 09:42:10;;;;;;;6.27;1.40;;;18.80;99.90;;;;;;5026421;28;20222;-90
2021/08/28 09:44:43;;;;;;;1.50;1.27;;;18.60;99.90;;;;;;5018882;28;20222;-89
2021/08/28 09:47:12;;;;;;;1.50;1.17;;;18.70;99.90;;;;;;5019026;28;20218;-88
2021/08/28 09:49:40;;;;;;;1.37;1.03;;;18.70;99.90;;;;;;5018876;28;20310;-92
2021/08/28 09:52:27;;;;;;;1.93;1.07;;;18.80;99.90;;;;;;5020233;28;20247;-92
2021/08/28 09:54:56;;;;;;;1.80;1.00;;;18.70;99.90;;;;;;5018436;28;20180;-89
2021/08/28 09:57:27;;;;;;;3.50;0.90;;;18.40;99.90;;;;;;5011107;28;20254;-90
2021/08/28 09:59:57;;;;;;;2.90;1.60;;;18.50;99.90;;;;;;5024245;28;20218;-90
2021/08/28 10:02:23;;;;;;;4.37;1.50;;;18.70;99.90;;;;;;5019382;28;20215;-89
2021/08/28 10:04:51;;;;;;;3.80;1.23;;;19.10;99.90;;;;;;5010824;28;20313;-90
2021/08/28 10:07:28;;;;;;;4.50;1.77;;;18.80;99.90;;;;;;5019944;28;20227;-89
2021/08/28 10:10:03;;;;;;;3.67;1.43;;;18.90;99.90;;;;;;5010647;28;20620;-89
2021/08/28 10:12:34;;;;;;;3.10;1.57;;;19.00;99.90;;;;;;5028052;28;20221;-89
2021/08/28 10:15:03;;;;;;;5.27;1.50;;;18.70;99.90;;;;;;5017927;28;20207;-90
2021/08/28 10:17:31;;;;;;;1.30;0.87;;;18.30;99.90;;;;;;5011678;28;20206;-92
2021/08/28 10:19:57;;;;;;;2.20;0.80;;;18.20;99.90;;;;;;5037147;28;20222;-93
2021/08/28 10:22:30;;;;;;;2.83;1.23;;;18.40;99.90;;;;;;5011233;28;20203;-93
2021/08/28 10:24:58;;;;;;;3.40;1.40;;;18.60;99.90;;;;;;5019345;28;20629;-90
2021/08/28 10:27:25;;;;;;;3.50;1.83;;;19.00;99.90;;;;;;5022311;28;20188;-92
2021/08/28 10:29:52;;;;;;;3.17;1.47;;;19.80;99.90;;;;;;5001504;28;20578;-91
2021/08/28 10:32:19;;;;;;;1.20;0.90;;;20.20;99.90;;;;;;5009047;28;20214;-91
2021/08/28 10:34:46;;;;;;;1.80;1.70;;;19.90;99.90;;;;;;5019222;28;20229;-91
2021/08/28 10:37:12;;;;;;;1.40;1.00;;;20.20;99.90;;;;;;5011307;28;20302;-90
2021/08/28 10:39:39;;;;;;;3.60;1.70;;;20.20;99.90;;;;;;5012263;28;20214;-90
2021/08/28 10:42:07;;;;;;;2.60;1.40;;;19.80;99.90;;;;;;5010142;28;20210;-90
2021/08/28 10:44:34;;;;;;;2.37;1.07;;;19.20;99.90;;;;;;5008810;28;20220;-91
2021/08/28 10:47:04;;;;;;;7.53;1.27;;;18.90;99.90;;;;;;5019109;28;20272;-92
2021/08/28 10:49:31;;;;;;;3.07;1.40;;;19.00;99.90;;;;;;5019602;28;20828;-90
2021/08/28 10:51:56;;;;;;;1.87;1.43;;;19.00;99.90;;;;;;5019955;28;20709;-90
2021/08/28 10:54:30;;;;;;;2.93;1.97;;;19.20;99.90;;;;;;5021771;28;20194;-91
2021/08/28 10:56:58;;;;;;;3.53;1.43;;;19.50;99.90;;;;;;5009339;28;20711;-91
2021/08/28 10:59:31;;;;;;;12.97;1.30;;;19.20;99.90;;;;;;5017117;28;20294;-90
2021/08/28 11:02:06;;;;;;;4.67;1.60;;;19.40;99.90;;;;;;5021134;28;20576;-91
2021/08/28 11:04:37;;;;;;;1.53;1.33;;;19.70;99.90;;;;;;5020045;28;20221;-90
2021/08/28 11:07:28;;;;;;;2.67;1.93;;;19.60;99.90;;;;;;5016863;28;20317;-91
2021/08/28 11:10:12;;;;;;;2.23;1.37;;;19.40;99.90;;;;;;5019413;28;20187;-90
2021/08/28 11:12:46;;;;;;;3.23;1.30;;;19.60;99.90;;;;;;5019939;28;20708;-91
2021/08/28 11:15:35;;;;;;;5.90;2.00;;;19.90;99.90;;;;;;5020997;28;20218;-91
2021/08/28 11:18:15;;;;;;;0.97;0.97;;;20.00;99.90;;;;;;5017838;28;20227;-91
2021/08/28 11:20:48;;;;;;;2.27;1.30;;;19.70;99.90;;;;;;5017460;28;20219;-90
2021/08/28 11:23:21;;;;;;;3.30;1.40;;;19.60;99.90;;;;;;5018806;28;20233;-90
2021/08/28 11:25:57;;;;;;;2.50;1.40;;;19.50;99.90;;;;;;5008728;28;20211;-92
2021/08/28 11:28:41;;;;;;;2.83;1.13;;;19.80;99.90;;;;;;5016788;28;20206;-90
2021/08/28 11:31:07;;;;;;;2.33;1.50;;;19.40;99.90;;;;;;5018057;28;20740;-91
2021/08/28 11:33:35;;;;;;;4.87;1.23;;;18.90;99.90;;;;;;5009692;28;20217;-91
2021/08/28 11:36:07;;;;;;;2.17;1.27;;;18.90;99.90;;;;;;5007728;28;20847;-90
2021/08/28 11:38:34;;;;;;;1.53;1.03;;;18.90;99.90;;;;;;5016666;28;20276;-91
2021/08/28 11:41:06;;;;;;;3.30;1.10;;;18.80;99.90;;;;;;5016827;28;20668;-90
2021/08/28 11:43:36;;;;;;;2.97;1.77;;;18.70;99.90;;;;;;5017390;28;20214;-91
2021/08/28 11:46:11;;;;;;;3.70;1.40;;;18.80;99.90;;;;;;5009301;28;20183;-92
2021/08/28 11:48:45;;;;;;;4.20;1.30;;;19.10;99.90;;;;;;5016492;28;20179;-90
2021/08/28 11:51:16;;;;;;;2.63;1.27;;;19.20;99.90;;;;;;5014889;28;20225;-89
2021/08/28 11:53:43;;;;;;;1.07;1.03;;;19.30;99.90;;;;;;5017814;28;20219;-90
2021/08/28 11:56:21;;;;;;;2.53;1.57;;;19.40;99.90;;;;;;5006650;28;20698;-90
2021/08/28 11:59:02;;;;;;;2.83;1.30;;;19.80;99.90;;;;;;5008907;28;20219;-90
2021/08/28 12:01:32;;;;;;;1.03;0.80;;;19.80;99.90;;;;;;5017334;28;20797;-90
2021/08/28 12:04:02;;;;;;;1.03;0.80;;;19.90;99.90;;;;;;5033657;28;20183;-91
2021/08/28 12:06:29;;;;;;;1.73;1.40;;;19.70;99.90;;;;;;5018844;28;20187;-90
2021/08/28 12:08:56;;;;;;;3.80;1.50;;;19.40;99.90;;;;;;5032334;28;20217;-90
2021/08/28 12:11:22;;;;;;;1.20;1.10;;;19.30;99.90;;;;;;5017641;28;20218;-89
2021/08/28 12:13:51;;;;;;;1.57;0.90;;;19.60;99.90;;;;;;5006614;28;20210;-90
2021/08/28 12:16:37;;;;;;;0.77;0.70;;;19.70;99.90;;;;;;5015887;28;20749;-90
2021/08/28 12:19:04;;;;;;;2.17;0.93;;;19.50;99.90;;;;;;5017903;28;20187;-89
2021/08/28 12:21:42;;;;;;;3.37;1.33;;;19.70;99.90;;;;;;5018774;28;20184;-90
2021/08/28 12:24:15;;;;;;;4.33;1.03;;;19.60;99.90;;;;;;5018009;28;20284;-89
2021/08/28 12:26:45;;;;;;;3.57;1.23;;;19.50;99.90;;;;;;5015175;28;20214;-89
2021/08/28 12:29:10;;;;;;;1.77;1.03;;;19.20;99.90;;;;;;5018694;28;20301;-89
2021/08/28 12:31:36;;;;;;;1.80;0.90;;;19.20;99.90;;;;;;5011086;28;20293;-90
2021/08/28 12:34:17;;;;;;;1.47;1.17;;;19.20;99.90;;;;;;5011168;28;20193;-89
2021/08/28 12:36:45;;;;;;;0.63;0.63;;;19.40;99.90;;;;;;5018195;28;20185;-90
2021/08/28 12:39:11;;;;;;;1.37;1.23;;;19.30;99.90;;;;;;5010915;28;20319;-90
2021/08/28 12:41:38;;;;;;;1.90;1.00;;;19.30;99.90;;;;;;5010798;28;20237;-89
2021/08/28 12:44:05;;;;;;;3.83;1.17;;;19.30;99.90;;;;;;5019385;28;20221;-92
2021/08/28 12:46:36;;;;;;;2.33;0.80;;;19.60;99.90;;;;;;5020550;28;20210;-91
2021/08/28 12:49:13;;;;;;;1.37;1.07;;;19.40;99.90;;;;;;5019798;28;20249;-90
2021/08/28 12:51:54;;;;;;;1.27;1.17;;;19.00;99.90;;;;;;5019627;28;20186;-90